Terminal Aerodrome Forecast
Issued by NWS

Home | Current Version | Previous Version | Text Only | Print | Product List | Glossary On
Versions: 1 2 3 4 5 6 7 8 9 10 11 12 13 14 15 16 17 18 19 20 21 22 23 24 25 26
000
FTUS44 KHGX 290520
TAFLBX
TAF
KLBX 290520Z 2906/3006 VRB03KT P6SM SCT120
     FM290900 VRB03KT P6SM VCSH SCT015 SCT250
     FM291300 21007KT P6SM VCSH BKN020 BKN035
     FM291700 20012KT P6SM SCT035=

USA.gov is the U.S. government's official web portal to all federal, state and local government web resources and services.